createdAt,value
2022-08-29T00:01:40.449Z,101492.47
2022-08-29T00:04:08.602Z,101486.25
2022-08-29T00:06:37.273Z,101487.94
2022-08-29T00:09:05.773Z,101487.94
2022-08-29T00:11:35.316Z,101494.16
2022-08-29T00:14:07.722Z,101492.25
2022-08-29T00:16:49.036Z,101491.47
2022-08-29T00:19:17.324Z,101490.41
2022-08-29T00:21:45.502Z,101491.31
2022-08-29T00:24:13.581Z,101501.72
2022-08-29T00:26:43.019Z,101495.41
2022-08-29T00:29:11.070Z,101497.28
2022-08-29T00:31:39.306Z,101493.63
2022-08-29T00:34:07.308Z,101491.94
2022-08-29T00:36:36.120Z,101501.00
2022-08-29T00:39:04.965Z,101504.56
2022-08-29T00:41:37.356Z,101506.41
2022-08-29T00:44:07.189Z,101485.31
2022-08-29T00:46:48.384Z,101501.81
2022-08-29T00:49:27.341Z,101505.16
2022-08-29T00:51:57.613Z,101497.94
2022-08-29T00:54:26.796Z,101503.47
2022-08-29T00:56:56.046Z,101508.81
2022-08-29T00:59:31.626Z,101511.56
2022-08-29T01:02:00.159Z,101501.66
2022-08-29T01:04:28.421Z,101505.88
2022-08-29T01:06:56.917Z,101507.03
2022-08-29T01:09:26.206Z,101516.03
2022-08-29T01:12:12.628Z,101514.34
2022-08-29T01:14:46.828Z,101493.19
2022-08-29T01:17:19.342Z,101511.56
2022-08-29T01:19:55.036Z,101509.81
2022-08-29T01:22:39.243Z,101512.50
2022-08-29T01:25:12.289Z,101508.13
2022-08-29T01:27:44.446Z,101512.38
2022-08-29T01:30:15.097Z,101512.66
2022-08-29T01:32:43.824Z,101505.50
2022-08-29T01:35:12.205Z,101505.59
2022-08-29T01:37:44.588Z,101510.97
2022-08-29T01:40:14.805Z,101513.75
2022-08-29T01:42:43.213Z,101514.75
2022-08-29T01:45:11.981Z,101519.13
2022-08-29T01:47:40.874Z,101514.56
2022-08-29T01:50:12.719Z,101503.09
2022-08-29T01:52:41.925Z,101502.31
2022-08-29T01:55:10.332Z,101515.44
2022-08-29T01:57:41.232Z,101519.88
2022-08-29T02:00:11.788Z,101520.00
2022-08-29T02:02:41.252Z,101516.38
2022-08-29T02:05:10.638Z,101519.97
2022-08-29T02:07:38.889Z,101523.53
2022-08-29T02:10:08.044Z,101516.44
2022-08-29T02:12:36.934Z,101515.50
2022-08-29T02:15:08.295Z,101513.97
2022-08-29T02:17:36.320Z,101517.25
2022-08-29T02:20:09.091Z,101513.75
2022-08-29T02:22:39.801Z,101512.00
2022-08-29T02:25:23.797Z,101508.34
2022-08-29T02:27:52.321Z,101510.19
2022-08-29T02:30:22.111Z,101515.66
2022-08-29T02:32:50.981Z,101509.38
2022-08-29T02:35:19.496Z,101510.34
2022-08-29T02:37:47.524Z,101509.22
2022-08-29T02:40:15.762Z,101504.88
2022-08-29T02:42:43.755Z,101510.34
2022-08-29T02:45:12.345Z,101512.34
2022-08-29T02:47:43.296Z,101515.06
2022-08-29T02:50:12.583Z,101508.78
2022-08-29T02:52:41.600Z,101511.56
2022-08-29T02:55:13.369Z,101500.19
2022-08-29T02:57:41.387Z,101501.34
2022-08-29T03:00:13.133Z,101498.03
2022-08-29T03:02:41.201Z,101504.56
2022-08-29T03:05:11.536Z,101503.03
2022-08-29T03:07:39.589Z,101504.19
2022-08-29T03:10:07.879Z,101508.88
2022-08-29T03:12:36.620Z,101508.00
2022-08-29T03:15:04.858Z,101510.09
2022-08-29T03:17:33.001Z,101500.31
2022-08-29T03:20:01.278Z,101506.78
2022-08-29T03:22:31.942Z,101512.16
2022-08-29T03:25:02.002Z,101505.13
2022-08-29T03:27:30.090Z,101508.69
2022-08-29T03:29:58.368Z,101510.44
2022-08-29T03:32:26.850Z,101518.53
2022-08-29T03:34:55.834Z,101512.25
2022-08-29T03:37:24.419Z,101509.63
2022-08-29T03:39:55.820Z,101511.50
2022-08-29T03:42:24.086Z,101505.31
2022-08-29T03:44:52.137Z,101508.69
2022-08-29T03:47:20.198Z,101511.44
2022-08-29T03:49:48.277Z,101515.91
2022-08-29T03:52:16.514Z,101512.38
2022-08-29T03:54:44.550Z,101511.38
2022-08-29T03:57:13.977Z,101518.53
2022-08-29T03:59:42.941Z,101521.16
2022-08-29T04:02:11.051Z,101523.09
2022-08-29T04:04:57.257Z,101535.88
2022-08-29T04:07:25.352Z,101536.63
2022-08-29T04:09:53.347Z,101541.47
2022-08-29T04:12:22.761Z,101536.91
2022-08-29T04:14:50.793Z,101547.66
2022-08-29T04:17:18.973Z,101541.28
2022-08-29T04:19:46.983Z,101548.47
2022-08-29T04:22:15.306Z,101546.88
2022-08-29T04:24:43.358Z,101543.22
2022-08-29T04:27:11.346Z,101551.06
2022-08-29T04:29:40.829Z,101549.44
2022-08-29T04:32:08.848Z,101552.06
2022-08-29T04:34:37.494Z,101552.78
2022-08-29T04:37:05.648Z,101564.38
2022-08-29T04:39:33.636Z,101557.16
2022-08-29T04:42:01.674Z,101564.44
2022-08-29T04:44:29.764Z,101565.19
2022-08-29T04:46:59.160Z,101567.06
2022-08-29T04:49:27.254Z,101577.72
2022-08-29T04:51:55.285Z,101573.41
2022-08-29T04:54:23.420Z,101573.41
2022-08-29T04:56:51.495Z,101578.66
2022-08-29T04:59:25.324Z,101572.25
2022-08-29T05:01:54.876Z,101568.63
2022-08-29T05:04:24.905Z,101580.28
2022-08-29T05:06:52.969Z,101577.66
2022-08-29T05:09:22.110Z,101581.97
2022-08-29T05:11:50.345Z,101581.28
2022-08-29T05:14:19.028Z,101586.72
2022-08-29T05:16:48.527Z,101582.19
2022-08-29T05:19:17.037Z,101581.13
2022-08-29T05:21:46.397Z,101583.97
2022-08-29T05:24:17.532Z,101589.03
2022-08-29T05:26:46.831Z,101579.28
2022-08-29T05:29:15.085Z,101594.22
2022-08-29T05:31:44.677Z,101589.50
2022-08-29T05:34:34.296Z,101593.59
2022-08-29T05:37:05.531Z,101586.34
2022-08-29T05:39:34.153Z,101598.00
2022-08-29T05:42:02.417Z,101604.31
2022-08-29T05:44:35.312Z,101604.03
2022-08-29T05:47:04.659Z,101601.41
2022-08-29T05:49:32.905Z,101603.47
2022-08-29T05:52:01.417Z,101598.28
2022-08-29T05:54:34.393Z,101603.59
2022-08-29T05:57:02.517Z,101601.91
2022-08-29T05:59:30.537Z,101601.63
2022-08-29T06:01:59.213Z,101603.16
2022-08-29T06:04:27.267Z,101605.06
2022-08-29T06:06:55.296Z,101603.59
2022-08-29T06:09:23.472Z,101605.50
2022-08-29T06:11:54.126Z,101591.19
2022-08-29T06:14:22.152Z,101611.47
2022-08-29T06:16:50.258Z,101617.69
2022-08-29T06:19:18.402Z,101615.84
2022-08-29T06:21:47.397Z,101610.91
2022-08-29T06:24:16.366Z,101614.09
2022-08-29T06:26:45.037Z,101612.25
2022-08-29T06:29:16.043Z,101627.94
2022-08-29T06:31:44.308Z,101618.44
2022-08-29T06:34:12.333Z,101618.84
2022-08-29T06:36:40.423Z,101632.31
2022-08-29T06:39:11.454Z,101633.31
2022-08-29T06:41:41.101Z,101632.31
2022-08-29T06:44:10.443Z,101637.69
2022-08-29T06:46:42.849Z,101642.94
2022-08-29T06:49:12.899Z,101639.19
2022-08-29T06:51:43.685Z,101637.66
2022-08-29T06:54:13.157Z,101634.53
2022-08-29T06:56:42.715Z,101633.31
2022-08-29T06:59:11.337Z,101633.59
2022-08-29T07:01:42.093Z,101630.53
2022-08-29T07:04:14.429Z,101629.09
2022-08-29T07:06:44.062Z,101637.09
2022-08-29T07:09:12.728Z,101639.72
2022-08-29T07:11:42.116Z,101636.03
2022-08-29T07:14:10.674Z,101639.66
2022-08-29T07:16:40.610Z,101633.25
2022-08-29T07:19:10.139Z,101632.28
2022-08-29T07:21:39.014Z,101632.50
2022-08-29T07:24:08.582Z,101631.19
2022-08-29T07:26:41.319Z,101639.16
2022-08-29T07:29:12.564Z,101628.44
2022-08-29T07:31:42.326Z,101646.84
2022-08-29T07:34:10.401Z,101642.25
2022-08-29T07:36:39.343Z,101644.66
2022-08-29T07:39:09.694Z,101634.59
2022-08-29T07:41:39.727Z,101641.66
2022-08-29T07:44:08.922Z,101642.09
2022-08-29T07:46:37.637Z,101643.38
2022-08-29T07:49:07.674Z,101641.31
2022-08-29T07:51:36.251Z,101637.59
2022-08-29T07:54:05.134Z,101645.03
2022-08-29T07:56:38.003Z,101645.63
2022-08-29T07:59:07.185Z,101650.78
2022-08-29T08:01:35.626Z,101658.13
2022-08-29T08:04:04.504Z,101654.97
2022-08-29T08:06:36.677Z,101656.50
2022-08-29T08:09:05.661Z,101655.78
2022-08-29T08:11:33.724Z,101654.94
2022-08-29T08:14:02.033Z,101667.34
2022-08-29T08:16:31.317Z,101665.94
2022-08-29T08:18:59.460Z,101663.97
2022-08-29T08:21:28.327Z,101662.22
2022-08-29T08:23:57.741Z,101674.56
2022-08-29T08:26:26.062Z,101674.94
2022-08-29T08:28:55.217Z,101676.53
2022-08-29T08:31:23.876Z,101677.34
2022-08-29T08:33:52.963Z,101674.88
2022-08-29T08:36:24.204Z,101673.00
2022-08-29T08:38:54.594Z,101671.97
2022-08-29T08:41:36.201Z,101677.63
2022-08-29T08:44:07.486Z,101683.13
2022-08-29T08:46:38.978Z,101669.66
2022-08-29T08:49:13.748Z,101680.72
2022-08-29T08:51:46.675Z,101687.19
2022-08-29T08:54:22.125Z,101678.81
2022-08-29T08:57:01.368Z,101677.34
2022-08-29T08:59:39.442Z,101683.16
2022-08-29T09:02:18.806Z,101678.63
2022-08-29T09:04:59.786Z,101683.44
2022-08-29T09:07:42.204Z,101683.06
2022-08-29T09:10:21.368Z,101677.00
2022-08-29T09:13:01.488Z,101687.84
2022-08-29T09:15:35.009Z,101683.72
2022-08-29T09:18:06.712Z,101684.53
2022-08-29T09:20:37.896Z,101697.09
2022-08-29T09:23:12.380Z,101690.19
2022-08-29T09:25:40.433Z,101695.03
2022-08-29T09:28:11.128Z,101693.03
2022-08-29T09:30:42.398Z,101685.22
2022-08-29T09:33:12.713Z,101686.28
2022-08-29T09:35:43.170Z,101686.34
2022-08-29T09:38:21.259Z,101690.81
2022-08-29T09:40:54.375Z,101689.41
2022-08-29T09:43:28.390Z,101685.13
2022-08-29T09:46:23.272Z,101694.25
2022-08-29T09:48:55.458Z,101704.53
2022-08-29T09:51:28.300Z,101694.16
2022-08-29T09:54:13.136Z,101701.66
2022-08-29T09:56:49.289Z,101711.09
2022-08-29T09:59:25.622Z,101703.59
2022-08-29T10:02:25.335Z,101703.69
2022-08-29T10:04:55.955Z,101703.22
2022-08-29T10:07:26.381Z,101705.53
2022-08-29T10:09:57.705Z,101701.63
2022-08-29T10:12:34.730Z,101712.31
2022-08-29T10:15:08.337Z,101710.84
2022-08-29T10:17:59.682Z,101718.06
2022-08-29T10:20:45.378Z,101715.72
2022-08-29T10:23:24.627Z,101717.03
2022-08-29T10:25:53.029Z,101716.50
2022-08-29T10:28:32.951Z,101715.38
2022-08-29T10:31:08.742Z,101720.03
2022-08-29T10:33:56.737Z,101718.97
2022-08-29T10:36:32.961Z,101717.66
2022-08-29T10:39:12.346Z,101716.19
2022-08-29T10:41:57.817Z,101714.69
2022-08-29T10:44:32.878Z,101719.19
2022-08-29T10:47:26.206Z,101712.94
2022-08-29T10:50:21.765Z,101723.34
2022-08-29T10:53:04.723Z,101715.63
2022-08-29T10:55:55.636Z,101723.00
2022-08-29T10:58:35.599Z,101731.91
2022-08-29T11:01:12.467Z,101725.53
2022-08-29T11:03:48.282Z,101723.41
2022-08-29T11:06:22.674Z,101726.13
2022-08-29T11:09:02.016Z,101727.41
2022-08-29T11:11:32.116Z,101721.94
2022-08-29T11:14:05.987Z,101733.94
2022-08-29T11:16:40.686Z,101730.84
2022-08-29T11:19:22.063Z,101733.91
2022-08-29T11:21:56.639Z,101724.97
2022-08-29T11:24:31.701Z,101728.91
2022-08-29T11:27:09.800Z,101726.63
2022-08-29T11:29:42.742Z,101730.47
2022-08-29T11:32:17.445Z,101721.31
2022-08-29T11:35:04.966Z,101732.78
2022-08-29T11:38:00.796Z,101727.34
2022-08-29T11:43:38.162Z,101738.53
2022-08-29T11:46:08.510Z,101741.00
2022-08-29T11:48:40.090Z,101738.19
2022-08-29T11:51:37.395Z,101739.00
2022-08-29T11:54:42.685Z,101744.59
2022-08-29T11:57:51.111Z,101735.16
2022-08-29T12:00:35.592Z,101745.56
2022-08-29T12:03:15.096Z,101745.19
2022-08-29T12:06:02.392Z,101746.88
2022-08-29T12:08:40.737Z,101746.41
2022-08-29T12:11:09.076Z,101750.19
2022-08-29T12:14:04.652Z,101753.97
2022-08-29T12:16:52.714Z,101765.91
2022-08-29T12:19:47.640Z,101760.91
2022-08-29T12:22:48.338Z,101765.59
2022-08-29T12:25:45.942Z,101769.91
2022-08-29T12:28:46.492Z,101775.53
2022-08-29T12:31:51.333Z,101772.47
2022-08-29T12:34:42.591Z,101774.22
2022-08-29T12:37:32.797Z,101783.22
2022-08-29T12:40:29.286Z,101792.06
2022-08-29T12:43:16.639Z,101786.72
2022-08-29T12:45:45.886Z,101784.09
2022-08-29T12:48:20.616Z,101779.09
2022-08-29T12:50:50.357Z,101779.31
2022-08-29T12:53:23.301Z,101781.25
2022-08-29T12:55:54.454Z,101779.97
2022-08-29T12:58:40.481Z,101779.41
2022-08-29T13:01:28.229Z,101770.72
2022-08-29T13:04:01.061Z,101766.00
2022-08-29T13:06:30.591Z,101775.16
2022-08-29T13:08:59.203Z,101769.09
2022-08-29T13:11:29.884Z,101767.78
2022-08-29T13:14:13.169Z,101770.72
2022-08-29T13:16:41.641Z,101771.34
2022-08-29T13:19:20.170Z,101775.38
2022-08-29T13:21:48.331Z,101766.28
2022-08-29T13:24:19.352Z,101782.16
2022-08-29T13:27:04.179Z,101779.09
2022-08-29T13:29:39.130Z,101774.63
2022-08-29T13:32:23.780Z,101770.44
2022-08-29T13:35:03.680Z,101776.78
2022-08-29T13:37:34.236Z,101772.03
2022-08-29T13:40:31.288Z,101770.81
2022-08-29T13:43:02.045Z,101759.97
2022-08-29T13:45:31.832Z,101766.53
2022-08-29T13:48:14.468Z,101764.72
2022-08-29T13:50:42.607Z,101767.06
2022-08-29T13:53:10.676Z,101765.00
2022-08-29T13:55:38.773Z,101762.88
2022-08-29T13:58:06.864Z,101763.75
2022-08-29T14:00:36.254Z,101768.63
2022-08-29T14:03:09.245Z,101763.56
2022-08-29T14:05:38.209Z,101755.06
2022-08-29T14:08:07.099Z,101764.88
2022-08-29T14:10:35.234Z,101763.63
2022-08-29T14:13:03.582Z,101755.63
2022-08-29T14:15:31.892Z,101749.66
2022-08-29T14:18:01.489Z,101764.19
2022-08-29T14:20:29.502Z,101730.09
2022-08-29T14:22:57.513Z,101753.47
2022-08-29T14:25:25.593Z,101752.00
2022-08-29T14:27:54.916Z,101743.38
2022-08-29T14:30:24.739Z,101742.03
2022-08-29T14:32:53.362Z,101748.53
2022-08-29T14:35:26.182Z,101744.72
2022-08-29T14:37:56.048Z,101733.69
2022-08-29T14:40:25.665Z,101742.47
2022-08-29T14:42:53.911Z,101744.63
2022-08-29T14:45:22.082Z,101741.91
2022-08-29T14:47:50.137Z,101743.22
2022-08-29T14:50:18.415Z,101756.25
2022-08-29T14:52:47.834Z,101751.81
2022-08-29T14:55:16.773Z,101751.91
2022-08-29T14:57:44.898Z,101750.38
2022-08-29T15:00:16.841Z,101748.41
2022-08-29T15:02:47.082Z,101757.00
2022-08-29T15:05:15.572Z,101757.84
2022-08-29T15:07:44.430Z,101755.44
2022-08-29T15:10:16.812Z,101755.19
2022-08-29T15:12:44.891Z,101752.97
2022-08-29T15:15:13.495Z,101745.56
2022-08-29T15:17:43.635Z,101754.91
2022-08-29T15:23:02.081Z,101756.75
2022-08-29T15:25:31.488Z,101759.00
2022-08-29T15:27:59.565Z,101747.25
2022-08-29T15:30:27.645Z,101749.34
2022-08-29T15:32:55.737Z,101750.81
2022-08-29T15:35:23.870Z,101750.28
2022-08-29T15:37:54.347Z,101760.19
2022-08-29T15:40:23.293Z,101752.88
2022-08-29T15:42:52.710Z,101755.59
2022-08-29T15:45:22.638Z,101743.50
2022-08-29T15:47:53.858Z,101749.03
2022-08-29T15:50:24.222Z,101736.47
2022-08-29T15:52:52.677Z,101741.94
2022-08-29T15:55:21.696Z,101743.16
2022-08-29T15:57:52.517Z,101742.03
2022-08-29T16:00:30.705Z,101737.78
2022-08-29T16:03:01.617Z,101748.06
2022-08-29T16:05:30.335Z,101747.53
2022-08-29T16:07:59.238Z,101748.53
2022-08-29T16:10:27.465Z,101740.13
2022-08-29T16:12:55.503Z,101742.56
2022-08-29T16:15:25.446Z,101749.47
2022-08-29T16:17:53.670Z,101752.09
2022-08-29T16:20:22.043Z,101759.69
2022-08-29T16:22:50.087Z,101757.97
2022-08-29T16:25:18.342Z,101763.53
2022-08-29T16:27:46.385Z,101763.13
2022-08-29T16:30:16.202Z,101762.94
2022-08-29T16:32:45.686Z,101760.75
2022-08-29T16:35:15.764Z,101768.72
2022-08-29T16:37:43.925Z,101767.13
2022-08-29T16:40:14.565Z,101760.19
2022-08-29T16:42:43.048Z,101755.84
2022-08-29T16:45:23.844Z,101755.84
2022-08-29T16:47:57.449Z,101752.75
2022-08-29T16:50:26.498Z,101752.53
2022-08-29T16:52:54.903Z,101756.72
2022-08-29T16:55:23.390Z,101753.88
2022-08-29T16:58:05.332Z,101760.88
2022-08-29T17:00:33.538Z,101769.84
2022-08-29T17:03:03.076Z,101759.59
2022-08-29T17:05:31.150Z,101761.59
2022-08-29T17:07:58.116Z,101750.53
2022-08-29T17:10:25.192Z,101749.63
2022-08-29T17:12:52.178Z,101759.44
2022-08-29T17:15:19.347Z,101751.72
2022-08-29T17:17:47.928Z,101746.47
2022-08-29T17:20:17.341Z,101742.00
2022-08-29T17:22:45.382Z,101747.97
2022-08-29T17:25:13.695Z,101748.03
2022-08-29T17:28:01.049Z,101754.88
2022-08-29T17:30:30.540Z,101754.34
2022-08-29T17:32:58.682Z,101755.56
2022-08-29T17:35:28.348Z,101761.19
2022-08-29T17:37:56.451Z,101755.06
2022-08-29T17:40:25.316Z,101753.16
2022-08-29T17:42:54.613Z,101750.91
2022-08-29T17:45:22.891Z,101752.03
2022-08-29T17:47:50.945Z,101758.00
2022-08-29T17:50:19.764Z,101753.47
2022-08-29T17:52:49.320Z,101754.28
2022-08-29T17:55:17.447Z,101758.09
2022-08-29T17:57:45.627Z,101759.72
2022-08-29T18:00:14.358Z,101771.28
2022-08-29T18:02:42.479Z,101767.06
2022-08-29T18:05:12.617Z,101769.84
2022-08-29T18:07:40.783Z,101768.81
2022-08-29T18:10:13.994Z,101770.50
2022-08-29T18:12:42.164Z,101763.78
2022-08-29T18:15:12.097Z,101762.63
2022-08-29T18:17:40.894Z,101766.28
2022-08-29T18:20:11.610Z,101764.69
2022-08-29T18:22:40.675Z,101762.50
2022-08-29T18:25:11.416Z,101774.91
2022-08-29T18:27:43.651Z,101774.13
2022-08-29T18:30:14.079Z,101775.00
2022-08-29T18:32:42.517Z,101775.84
2022-08-29T18:35:11.353Z,101768.66
2022-08-29T18:37:39.649Z,101782.50
2022-08-29T18:40:10.851Z,101784.97
2022-08-29T18:42:41.436Z,101786.22
2022-08-29T18:45:11.013Z,101792.44
2022-08-29T18:47:39.281Z,101790.69
2022-08-29T18:50:25.520Z,101793.38
2022-08-29T18:52:55.109Z,101796.91
2022-08-29T18:55:25.058Z,101806.81
2022-08-29T18:57:53.507Z,101811.88
2022-08-29T19:00:21.841Z,101825.09
2022-08-29T19:02:50.033Z,101812.97
2022-08-29T19:05:18.878Z,101823.03
2022-08-29T19:07:46.915Z,101820.00
2022-08-29T19:10:15.375Z,101817.91
2022-08-29T19:12:46.729Z,101817.50
2022-08-29T19:15:16.058Z,101820.06
2022-08-29T19:17:44.159Z,101814.13
2022-08-29T19:20:33.550Z,101812.63
2022-08-29T19:23:01.642Z,101813.84
2022-08-29T19:25:30.098Z,101812.50
2022-08-29T19:27:59.657Z,101805.00
2022-08-29T19:30:28.720Z,101814.78
2022-08-29T19:32:56.753Z,101807.59
2022-08-29T19:35:25.457Z,101814.34
2022-08-29T19:37:54.145Z,101816.06
2022-08-29T19:40:24.167Z,101817.47
2022-08-29T19:42:54.036Z,101807.47
2022-08-29T19:45:23.596Z,101808.72
2022-08-29T19:47:52.166Z,101811.50
2022-08-29T19:50:24.731Z,101809.50
2022-08-29T19:52:54.393Z,101810.53
2022-08-29T19:55:24.745Z,101809.84
2022-08-29T19:57:53.094Z,101808.97
2022-08-29T20:00:25.478Z,101809.28
2022-08-29T20:02:53.976Z,101806.69
2022-08-29T20:05:22.343Z,101810.38
2022-08-29T20:07:51.240Z,101803.28
2022-08-29T20:10:22.839Z,101811.09
2022-08-29T20:12:51.861Z,101808.78
2022-08-29T20:15:22.777Z,101810.72
2022-08-29T20:18:01.371Z,101814.22
2022-08-29T20:20:34.535Z,101808.94
2022-08-29T20:23:02.979Z,101808.72
2022-08-29T20:25:32.438Z,101816.81
2022-08-29T20:28:01.051Z,101821.06
2022-08-29T20:30:33.012Z,101820.31
2022-08-29T20:33:02.754Z,101820.06
2022-08-29T20:35:48.224Z,101826.03
2022-08-29T20:38:16.631Z,101816.78
2022-08-29T20:40:46.899Z,101826.56
2022-08-29T20:43:15.625Z,101828.44
2022-08-29T20:45:43.934Z,101833.16
2022-08-29T20:48:13.889Z,101822.22
2022-08-29T20:50:42.060Z,101816.84
2022-08-29T20:53:12.830Z,101828.72
2022-08-29T20:55:59.240Z,101824.56
2022-08-29T20:58:29.021Z,101824.31
2022-08-29T21:00:57.245Z,101825.56
2022-08-29T21:03:44.694Z,101829.31
2022-08-29T21:06:14.032Z,101836.41
2022-08-29T21:08:42.256Z,101826.63
2022-08-29T21:11:14.518Z,101832.66
2022-08-29T21:13:43.401Z,101827.84
2022-08-29T21:16:12.076Z,101830.69
2022-08-29T21:18:42.006Z,101836.28
2022-08-29T21:21:13.348Z,101831.94
2022-08-29T21:23:41.467Z,101834.78
2022-08-29T21:26:09.788Z,101834.41
2022-08-29T21:28:38.313Z,101829.78
2022-08-29T21:31:09.944Z,101831.94
2022-08-29T21:33:39.046Z,101835.41
2022-08-29T21:36:12.743Z,101837.28
2022-08-29T21:38:40.849Z,101831.94
2022-08-29T21:41:09.970Z,101829.25
2022-08-29T21:43:38.371Z,101833.06
2022-08-29T21:46:15.139Z,101830.44
2022-08-29T21:48:43.335Z,101830.09
2022-08-29T21:51:14.031Z,101827.81
2022-08-29T21:53:42.160Z,101825.28
2022-08-29T21:56:10.193Z,101831.97
2022-08-29T21:58:38.205Z,101834.91
2022-08-29T22:01:09.269Z,101833.09
2022-08-29T22:03:37.354Z,101839.53
2022-08-29T22:06:07.038Z,101835.44
2022-08-29T22:08:37.796Z,101833.91
2022-08-29T22:11:12.754Z,101837.16
2022-08-29T22:13:41.237Z,101832.88
2022-08-29T22:16:27.448Z,101842.53
2022-08-29T22:18:56.465Z,101836.53
2022-08-29T22:21:27.433Z,101842.91
2022-08-29T22:23:57.261Z,101841.00
2022-08-29T22:26:25.552Z,101836.84
2022-08-29T22:28:53.750Z,101845.59
2022-08-29T22:31:21.929Z,101840.28
2022-08-29T22:33:50.350Z,101842.91
2022-08-29T22:36:19.628Z,101841.13
2022-08-29T22:38:53.548Z,101843.81
2022-08-29T22:41:26.231Z,101838.75
2022-08-29T22:44:31.670Z,101841.31
2022-08-29T22:46:44.997Z,101816.59
2022-08-29T22:49:13.354Z,101837.88
2022-08-29T22:51:41.435Z,101836.97
2022-08-29T22:54:27.065Z,101839.59
2022-08-29T22:56:56.590Z,101833.03
2022-08-29T22:59:24.699Z,101832.31
2022-08-29T23:01:52.796Z,101834.84
2022-08-29T23:04:21.314Z,101846.56
2022-08-29T23:06:49.322Z,101843.94
2022-08-29T23:09:17.729Z,101831.09
2022-08-29T23:11:45.802Z,101840.56
2022-08-29T23:14:15.471Z,101843.28
2022-08-29T23:16:48.878Z,101836.25
2022-08-29T23:19:17.062Z,101838.44
2022-08-29T23:21:45.356Z,101840.25
2022-08-29T23:24:14.146Z,101841.97
2022-08-29T23:26:42.831Z,101842.94
2022-08-29T23:29:11.136Z,101846.56
2022-08-29T23:31:40.536Z,101839.28
2022-08-29T23:34:08.694Z,101838.31
2022-08-29T23:36:37.614Z,101844.72
2022-08-29T23:39:06.860Z,101849.31
2022-08-29T23:41:36.028Z,101846.63
2022-08-29T23:44:04.711Z,101850.09
2022-08-29T23:46:32.755Z,101847.13
2022-08-29T23:49:02.193Z,101853.06
2022-08-29T23:51:30.675Z,101849.91
2022-08-29T23:53:58.794Z,101840.75
2022-08-29T23:56:27.453Z,101851.78
2022-08-29T23:58:56.226Z,101852.53
